sensor_id;sensor_type;location;lat;lon;timestamp;P1;durP1;ratioP1;P2;durP2;ratioP2
16510;SDS011;8368;48.772;8.754;2022-07-23T00:00:29;6.93;;;6.32;;
16510;SDS011;8368;48.772;8.754;2022-07-23T00:02:54;6.30;;;5.80;;
16510;SDS011;8368;48.772;8.754;2022-07-23T00:05:20;6.57;;;6.07;;
16510;SDS011;8368;48.772;8.754;2022-07-23T00:07:46;7.13;;;6.43;;
16510;SDS011;8368;48.772;8.754;2022-07-23T00:10:11;6.57;;;6.18;;
16510;SDS011;8368;48.772;8.754;2022-07-23T00:12:38;6.50;;;6.00;;
16510;SDS011;8368;48.772;8.754;2022-07-23T00:15:04;6.75;;;6.25;;
16510;SDS011;8368;48.772;8.754;2022-07-23T00:17:33;6.65;;;6.10;;
16510;SDS011;8368;48.772;8.754;2022-07-23T00:19:59;6.70;;;6.20;;
16510;SDS011;8368;48.772;8.754;2022-07-23T00:22:25;6.20;;;5.70;;
16510;SDS011;8368;48.772;8.754;2022-07-23T00:24:52;6.65;;;6.15;;
16510;SDS011;8368;48.772;8.754;2022-07-23T00:27:18;6.70;;;6.20;;
16510;SDS011;8368;48.772;8.754;2022-07-23T00:29:43;6.65;;;6.15;;
16510;SDS011;8368;48.772;8.754;2022-07-23T00:32:09;6.15;;;5.70;;
16510;SDS011;8368;48.772;8.754;2022-07-23T00:34:34;5.50;;;5.20;;
16510;SDS011;8368;48.772;8.754;2022-07-23T00:37:00;5.80;;;5.40;;
16510;SDS011;8368;48.772;8.754;2022-07-23T00:39:25;6.18;;;5.60;;
16510;SDS011;8368;48.772;8.754;2022-07-23T00:41:51;5.82;;;5.32;;
16510;SDS011;8368;48.772;8.754;2022-07-23T00:44:18;5.88;;;5.40;;
16510;SDS011;8368;48.772;8.754;2022-07-23T00:46:52;5.57;;;5.28;;
16510;SDS011;8368;48.772;8.754;2022-07-23T00:49:20;6.25;;;5.72;;
16510;SDS011;8368;48.772;8.754;2022-07-23T00:51:46;6.00;;;5.60;;
16510;SDS011;8368;48.772;8.754;2022-07-23T00:54:12;5.50;;;5.20;;
16510;SDS011;8368;48.772;8.754;2022-07-23T00:56:38;5.88;;;5.47;;
16510;SDS011;8368;48.772;8.754;2022-07-23T00:59:06;5.65;;;5.35;;
16510;SDS011;8368;48.772;8.754;2022-07-23T01:01:32;5.70;;;5.40;;
16510;SDS011;8368;48.772;8.754;2022-07-23T01:03:58;5.63;;;5.32;;
16510;SDS011;8368;48.772;8.754;2022-07-23T01:06:23;5.78;;;5.32;;
16510;SDS011;8368;48.772;8.754;2022-07-23T01:08:49;6.00;;;5.50;;
16510;SDS011;8368;48.772;8.754;2022-07-23T01:11:15;5.88;;;5.43;;
16510;SDS011;8368;48.772;8.754;2022-07-23T01:13:42;6.03;;;5.63;;
16510;SDS011;8368;48.772;8.754;2022-07-23T01:16:08;6.13;;;5.72;;
16510;SDS011;8368;48.772;8.754;2022-07-23T01:18:33;6.03;;;5.45;;
16510;SDS011;8368;48.772;8.754;2022-07-23T01:20:59;6.03;;;5.63;;
16510;SDS011;8368;48.772;8.754;2022-07-23T01:23:25;6.22;;;5.82;;
16510;SDS011;8368;48.772;8.754;2022-07-23T01:25:53;6.60;;;6.10;;
16510;SDS011;8368;48.772;8.754;2022-07-23T01:28:20;6.82;;;5.80;;
16510;SDS011;8368;48.772;8.754;2022-07-23T01:30:47;5.90;;;5.50;;
16510;SDS011;8368;48.772;8.754;2022-07-23T01:33:13;5.70;;;5.30;;
16510;SDS011;8368;48.772;8.754;2022-07-23T01:35:39;5.70;;;5.40;;
16510;SDS011;8368;48.772;8.754;2022-07-23T01:38:05;6.53;;;5.93;;
16510;SDS011;8368;48.772;8.754;2022-07-23T01:40:31;6.53;;;6.03;;
16510;SDS011;8368;48.772;8.754;2022-07-23T01:42:57;6.88;;;6.32;;
16510;SDS011;8368;48.772;8.754;2022-07-23T01:45:22;7.05;;;6.45;;
16510;SDS011;8368;48.772;8.754;2022-07-23T01:47:48;6.22;;;5.60;;
16510;SDS011;8368;48.772;8.754;2022-07-23T01:50:14;6.85;;;6.35;;
16510;SDS011;8368;48.772;8.754;2022-07-23T01:52:39;6.65;;;6.20;;
16510;SDS011;8368;48.772;8.754;2022-07-23T01:55:05;7.00;;;6.43;;
16510;SDS011;8368;48.772;8.754;2022-07-23T01:57:31;8.43;;;7.20;;
16510;SDS011;8368;48.772;8.754;2022-07-23T01:59:57;7.82;;;7.13;;
16510;SDS011;8368;48.772;8.754;2022-07-23T02:02:23;7.28;;;6.68;;
16510;SDS011;8368;48.772;8.754;2022-07-23T02:04:49;7.57;;;6.90;;
16510;SDS011;8368;48.772;8.754;2022-07-23T02:07:15;6.97;;;6.38;;
16510;SDS011;8368;48.772;8.754;2022-07-23T02:09:41;8.23;;;7.70;;
16510;SDS011;8368;48.772;8.754;2022-07-23T02:12:06;8.75;;;7.00;;
16510;SDS011;8368;48.772;8.754;2022-07-23T02:14:32;8.15;;;7.35;;
16510;SDS011;8368;48.772;8.754;2022-07-23T02:16:58;7.95;;;7.25;;
16510;SDS011;8368;48.772;8.754;2022-07-23T02:19:23;7.65;;;7.07;;
16510;SDS011;8368;48.772;8.754;2022-07-23T02:21:49;7.30;;;6.80;;
16510;SDS011;8368;48.772;8.754;2022-07-23T02:24:14;7.60;;;6.97;;
16510;SDS011;8368;48.772;8.754;2022-07-23T02:26:40;7.40;;;6.80;;
16510;SDS011;8368;48.772;8.754;2022-07-23T02:29:06;7.57;;;6.88;;
16510;SDS011;8368;48.772;8.754;2022-07-23T02:31:32;7.65;;;7.05;;
16510;SDS011;8368;48.772;8.754;2022-07-23T02:33:58;8.45;;;7.60;;
16510;SDS011;8368;48.772;8.754;2022-07-23T02:36:23;8.02;;;6.93;;
16510;SDS011;8368;48.772;8.754;2022-07-23T02:38:49;7.32;;;6.82;;
16510;SDS011;8368;48.772;8.754;2022-07-23T02:41:14;10.50;;;9.10;;
16510;SDS011;8368;48.772;8.754;2022-07-23T02:43:40;7.20;;;6.70;;
16510;SDS011;8368;48.772;8.754;2022-07-23T02:46:06;7.57;;;6.90;;
16510;SDS011;8368;48.772;8.754;2022-07-23T02:48:32;7.68;;;6.95;;
16510;SDS011;8368;48.772;8.754;2022-07-23T02:50:58;7.60;;;6.90;;
16510;SDS011;8368;48.772;8.754;2022-07-23T02:53:23;7.35;;;6.85;;
16510;SDS011;8368;48.772;8.754;2022-07-23T02:55:49;7.18;;;6.68;;
16510;SDS011;8368;48.772;8.754;2022-07-23T03:00:41;7.60;;;7.00;;
16510;SDS011;8368;48.772;8.754;2022-07-23T03:03:07;7.18;;;6.65;;
16510;SDS011;8368;48.772;8.754;2022-07-23T03:05:33;7.28;;;6.75;;
16510;SDS011;8368;48.772;8.754;2022-07-23T03:07:59;7.03;;;6.43;;
16510;SDS011;8368;48.772;8.754;2022-07-23T03:10:24;6.95;;;6.22;;
16510;SDS011;8368;48.772;8.754;2022-07-23T03:12:50;6.45;;;5.95;;
16510;SDS011;8368;48.772;8.754;2022-07-23T03:15:16;5.70;;;5.40;;
16510;SDS011;8368;48.772;8.754;2022-07-23T03:17:41;6.80;;;6.30;;
16510;SDS011;8368;48.772;8.754;2022-07-23T03:20:07;5.95;;;5.43;;
16510;SDS011;8368;48.772;8.754;2022-07-23T03:22:33;5.82;;;5.50;;
16510;SDS011;8368;48.772;8.754;2022-07-23T03:24:59;5.90;;;5.60;;
16510;SDS011;8368;48.772;8.754;2022-07-23T03:27:25;6.43;;;5.90;;
16510;SDS011;8368;48.772;8.754;2022-07-23T03:29:54;6.40;;;5.90;;
16510;SDS011;8368;48.772;8.754;2022-07-23T03:32:21;6.35;;;5.82;;
16510;SDS011;8368;48.772;8.754;2022-07-23T03:34:48;6.63;;;6.00;;
16510;SDS011;8368;48.772;8.754;2022-07-23T03:37:13;6.75;;;6.25;;
16510;SDS011;8368;48.772;8.754;2022-07-23T03:39:39;6.60;;;6.00;;
16510;SDS011;8368;48.772;8.754;2022-07-23T03:42:05;7.15;;;6.32;;
16510;SDS011;8368;48.772;8.754;2022-07-23T03:44:31;6.50;;;6.00;;
16510;SDS011;8368;48.772;8.754;2022-07-23T03:46:56;6.38;;;5.93;;
16510;SDS011;8368;48.772;8.754;2022-07-23T03:49:22;6.78;;;6.10;;
16510;SDS011;8368;48.772;8.754;2022-07-23T03:51:47;6.75;;;6.25;;
16510;SDS011;8368;48.772;8.754;2022-07-23T03:54:13;6.70;;;6.20;;
16510;SDS011;8368;48.772;8.754;2022-07-23T03:56:39;6.72;;;6.22;;
16510;SDS011;8368;48.772;8.754;2022-07-23T03:59:04;6.93;;;6.43;;
16510;SDS011;8368;48.772;8.754;2022-07-23T04:01:30;6.93;;;6.40;;
16510;SDS011;8368;48.772;8.754;2022-07-23T04:03:55;6.80;;;6.40;;
16510;SDS011;8368;48.772;8.754;2022-07-23T04:06:21;6.10;;;5.70;;
16510;SDS011;8368;48.772;8.754;2022-07-23T04:08:47;6.65;;;6.15;;
16510;SDS011;8368;48.772;8.754;2022-07-23T04:11:12;6.57;;;5.97;;
16510;SDS011;8368;48.772;8.754;2022-07-23T04:13:38;5.97;;;5.57;;
16510;SDS011;8368;48.772;8.754;2022-07-23T04:16:04;6.88;;;6.38;;
16510;SDS011;8368;48.772;8.754;2022-07-23T04:18:30;6.25;;;5.82;;
16510;SDS011;8368;48.772;8.754;2022-07-23T04:20:55;6.18;;;5.78;;
16510;SDS011;8368;48.772;8.754;2022-07-23T04:23:21;5.90;;;5.60;;
16510;SDS011;8368;48.772;8.754;2022-07-23T04:25:46;7.03;;;5.60;;
16510;SDS011;8368;48.772;8.754;2022-07-23T04:28:12;5.97;;;5.57;;
16510;SDS011;8368;48.772;8.754;2022-07-23T04:30:37;6.00;;;5.45;;
16510;SDS011;8368;48.772;8.754;2022-07-23T04:33:03;5.60;;;5.20;;
16510;SDS011;8368;48.772;8.754;2022-07-23T04:35:32;5.60;;;5.28;;
16510;SDS011;8368;48.772;8.754;2022-07-23T04:37:59;5.10;;;4.80;;
16510;SDS011;8368;48.772;8.754;2022-07-23T04:40:25;5.60;;;5.30;;
16510;SDS011;8368;48.772;8.754;2022-07-23T04:42:50;6.13;;;5.63;;
16510;SDS011;8368;48.772;8.754;2022-07-23T04:45:16;6.18;;;5.65;;
16510;SDS011;8368;48.772;8.754;2022-07-23T04:47:42;5.88;;;5.45;;
16510;SDS011;8368;48.772;8.754;2022-07-23T04:50:07;5.57;;;5.28;;
16510;SDS011;8368;48.772;8.754;2022-07-23T04:52:33;6.30;;;5.90;;
16510;SDS011;8368;48.772;8.754;2022-07-23T04:54:59;6.22;;;5.82;;
16510;SDS011;8368;48.772;8.754;2022-07-23T04:57:24;5.90;;;5.47;;
16510;SDS011;8368;48.772;8.754;2022-07-23T04:59:50;5.95;;;5.55;;
16510;SDS011;8368;48.772;8.754;2022-07-23T05:02:16;6.00;;;5.50;;
16510;SDS011;8368;48.772;8.754;2022-07-23T05:04:41;5.88;;;5.47;;
16510;SDS011;8368;48.772;8.754;2022-07-23T05:07:07;6.25;;;5.85;;
16510;SDS011;8368;48.772;8.754;2022-07-23T05:09:32;6.15;;;5.65;;
16510;SDS011;8368;48.772;8.754;2022-07-23T05:11:59;6.03;;;5.63;;
16510;SDS011;8368;48.772;8.754;2022-07-23T05:14:24;5.93;;;5.50;;
16510;SDS011;8368;48.772;8.754;2022-07-23T05:16:50;5.63;;;5.28;;
16510;SDS011;8368;48.772;8.754;2022-07-23T05:19:15;6.68;;;6.15;;
16510;SDS011;8368;48.772;8.754;2022-07-23T05:21:41;6.13;;;5.47;;
16510;SDS011;8368;48.772;8.754;2022-07-23T05:24:06;6.35;;;5.95;;
16510;SDS011;8368;48.772;8.754;2022-07-23T05:26:32;6.75;;;6.22;;
16510;SDS011;8368;48.772;8.754;2022-07-23T05:28:57;5.70;;;5.30;;
16510;SDS011;8368;48.772;8.754;2022-07-23T05:31:24;6.32;;;5.93;;
16510;SDS011;8368;48.772;8.754;2022-07-23T05:33:49;5.93;;;5.53;;
16510;SDS011;8368;48.772;8.754;2022-07-23T05:36:15;6.13;;;5.63;;
16510;SDS011;8368;48.772;8.754;2022-07-23T05:38:40;6.15;;;5.72;;
16510;SDS011;8368;48.772;8.754;2022-07-23T05:41:06;6.50;;;6.00;;
16510;SDS011;8368;48.772;8.754;2022-07-23T05:43:31;6.13;;;5.72;;
16510;SDS011;8368;48.772;8.754;2022-07-23T05:45:57;6.22;;;5.72;;
16510;SDS011;8368;48.772;8.754;2022-07-23T05:48:22;6.18;;;5.78;;
16510;SDS011;8368;48.772;8.754;2022-07-23T05:50:48;6.05;;;5.72;;
16510;SDS011;8368;48.772;8.754;2022-07-23T05:53:14;6.80;;;6.35;;
16510;SDS011;8368;48.772;8.754;2022-07-23T05:55:39;6.35;;;6.05;;
16510;SDS011;8368;48.772;8.754;2022-07-23T05:58:05;5.88;;;5.38;;
16510;SDS011;8368;48.772;8.754;2022-07-23T06:00:30;6.93;;;6.20;;
16510;SDS011;8368;48.772;8.754;2022-07-23T06:02:56;7.10;;;5.85;;
16510;SDS011;8368;48.772;8.754;2022-07-23T06:05:22;6.20;;;5.78;;
16510;SDS011;8368;48.772;8.754;2022-07-23T06:07:48;6.30;;;5.70;;
16510;SDS011;8368;48.772;8.754;2022-07-23T06:10:14;5.78;;;5.47;;
16510;SDS011;8368;48.772;8.754;2022-07-23T06:12:40;5.95;;;5.55;;
16510;SDS011;8368;48.772;8.754;2022-07-23T06:15:06;6.20;;;5.80;;
16510;SDS011;8368;48.772;8.754;2022-07-23T06:17:32;5.97;;;5.63;;
16510;SDS011;8368;48.772;8.754;2022-07-23T06:19:57;5.53;;;5.05;;
16510;SDS011;8368;48.772;8.754;2022-07-23T06:22:23;6.28;;;5.82;;
16510;SDS011;8368;48.772;8.754;2022-07-23T06:24:50;6.10;;;5.60;;
16510;SDS011;8368;48.772;8.754;2022-07-23T06:27:16;6.07;;;5.65;;
16510;SDS011;8368;48.772;8.754;2022-07-23T06:29:42;5.97;;;5.47;;
16510;SDS011;8368;48.772;8.754;2022-07-23T06:32:08;6.72;;;5.55;;
16510;SDS011;8368;48.772;8.754;2022-07-23T06:34:33;5.65;;;5.25;;
16510;SDS011;8368;48.772;8.754;2022-07-23T06:36:59;6.13;;;5.72;;
16510;SDS011;8368;48.772;8.754;2022-07-23T06:39:25;6.63;;;6.03;;
16510;SDS011;8368;48.772;8.754;2022-07-23T06:41:50;6.30;;;5.80;;
16510;SDS011;8368;48.772;8.754;2022-07-23T06:44:16;7.22;;;6.70;;
16510;SDS011;8368;48.772;8.754;2022-07-23T06:46:42;6.70;;;6.13;;
16510;SDS011;8368;48.772;8.754;2022-07-23T06:49:08;6.80;;;6.30;;
16510;SDS011;8368;48.772;8.754;2022-07-23T06:51:34;7.85;;;7.10;;
16510;SDS011;8368;48.772;8.754;2022-07-23T06:53:59;7.72;;;7.07;;
16510;SDS011;8368;48.772;8.754;2022-07-23T06:56:25;8.13;;;7.38;;
16510;SDS011;8368;48.772;8.754;2022-07-23T06:58:51;7.85;;;7.13;;
16510;SDS011;8368;48.772;8.754;2022-07-23T07:01:16;7.75;;;7.07;;
16510;SDS011;8368;48.772;8.754;2022-07-23T07:03:42;7.90;;;7.30;;
16510;SDS011;8368;48.772;8.754;2022-07-23T07:06:07;9.13;;;8.23;;
16510;SDS011;8368;48.772;8.754;2022-07-23T07:08:33;8.50;;;7.78;;
16510;SDS011;8368;48.772;8.754;2022-07-23T07:10:58;7.82;;;7.18;;
16510;SDS011;8368;48.772;8.754;2022-07-23T07:13:24;9.40;;;7.65;;
16510;SDS011;8368;48.772;8.754;2022-07-23T07:15:50;7.95;;;7.43;;
16510;SDS011;8368;48.772;8.754;2022-07-23T07:18:15;7.75;;;7.22;;
16510;SDS011;8368;48.772;8.754;2022-07-23T07:20:41;8.23;;;7.45;;
16510;SDS011;8368;48.772;8.754;2022-07-23T07:23:07;8.27;;;7.53;;
16510;SDS011;8368;48.772;8.754;2022-07-23T07:25:32;8.45;;;7.60;;
16510;SDS011;8368;48.772;8.754;2022-07-23T07:27:58;7.97;;;7.28;;
16510;SDS011;8368;48.772;8.754;2022-07-23T07:30:23;7.25;;;6.65;;
16510;SDS011;8368;48.772;8.754;2022-07-23T07:32:49;7.68;;;6.97;;
16510;SDS011;8368;48.772;8.754;2022-07-23T07:35:14;7.88;;;7.20;;
16510;SDS011;8368;48.772;8.754;2022-07-23T07:37:40;7.97;;;7.22;;
16510;SDS011;8368;48.772;8.754;2022-07-23T07:40:06;8.05;;;7.30;;
16510;SDS011;8368;48.772;8.754;2022-07-23T07:42:32;7.90;;;7.10;;
16510;SDS011;8368;48.772;8.754;2022-07-23T07:44:57;7.53;;;6.93;;
16510;SDS011;8368;48.772;8.754;2022-07-23T07:47:23;7.30;;;6.70;;
16510;SDS011;8368;48.772;8.754;2022-07-23T07:49:49;7.05;;;6.45;;
16510;SDS011;8368;48.772;8.754;2022-07-23T07:52:14;7.22;;;6.57;;
16510;SDS011;8368;48.772;8.754;2022-07-23T07:54:40;7.05;;;6.60;;
16510;SDS011;8368;48.772;8.754;2022-07-23T07:57:05;6.57;;;6.10;;
16510;SDS011;8368;48.772;8.754;2022-07-23T07:59:31;6.28;;;5.75;;
16510;SDS011;8368;48.772;8.754;2022-07-23T08:01:56;6.32;;;5.93;;
16510;SDS011;8368;48.772;8.754;2022-07-23T08:04:22;6.65;;;6.07;;
16510;SDS011;8368;48.772;8.754;2022-07-23T08:06:48;7.28;;;6.70;;
16510;SDS011;8368;48.772;8.754;2022-07-23T08:09:13;6.32;;;5.82;;
16510;SDS011;8368;48.772;8.754;2022-07-23T08:11:39;6.50;;;6.00;;
16510;SDS011;8368;48.772;8.754;2022-07-23T08:14:04;6.22;;;5.82;;
16510;SDS011;8368;48.772;8.754;2022-07-23T08:16:30;6.75;;;6.25;;
16510;SDS011;8368;48.772;8.754;2022-07-23T08:18:56;6.68;;;6.28;;
16510;SDS011;8368;48.772;8.754;2022-07-23T08:21:21;7.25;;;6.60;;
16510;SDS011;8368;48.772;8.754;2022-07-23T08:23:47;6.78;;;6.25;;
16510;SDS011;8368;48.772;8.754;2022-07-23T08:26:12;6.65;;;5.97;;
16510;SDS011;8368;48.772;8.754;2022-07-23T08:28:38;6.20;;;5.75;;
16510;SDS011;8368;48.772;8.754;2022-07-23T08:31:04;5.55;;;5.20;;
16510;SDS011;8368;48.772;8.754;2022-07-23T08:33:30;6.07;;;5.40;;
16510;SDS011;8368;48.772;8.754;2022-07-23T08:35:56;5.50;;;5.20;;
16510;SDS011;8368;48.772;8.754;2022-07-23T08:38:22;6.32;;;5.93;;
16510;SDS011;8368;48.772;8.754;2022-07-23T08:40:51;6.80;;;5.30;;
16510;SDS011;8368;48.772;8.754;2022-07-23T08:43:19;6.22;;;5.72;;
16510;SDS011;8368;48.772;8.754;2022-07-23T08:45:47;6.75;;;6.25;;
16510;SDS011;8368;48.772;8.754;2022-07-23T08:48:18;6.13;;;5.65;;
16510;SDS011;8368;48.772;8.754;2022-07-23T08:50:46;6.05;;;5.65;;
16510;SDS011;8368;48.772;8.754;2022-07-23T08:53:13;5.68;;;5.38;;
16510;SDS011;8368;48.772;8.754;2022-07-23T08:55:40;6.13;;;5.72;;
16510;SDS011;8368;48.772;8.754;2022-07-23T08:58:08;5.25;;;4.95;;
16510;SDS011;8368;48.772;8.754;2022-07-23T09:00:33;5.65;;;5.35;;
16510;SDS011;8368;48.772;8.754;2022-07-23T09:02:59;4.93;;;4.72;;
16510;SDS011;8368;48.772;8.754;2022-07-23T09:05:25;5.65;;;5.20;;
16510;SDS011;8368;48.772;8.754;2022-07-23T09:10:29;5.15;;;4.85;;
16510;SDS011;8368;48.772;8.754;2022-07-23T09:12:54;5.55;;;5.10;;
16510;SDS011;8368;48.772;8.754;2022-07-23T09:15:20;4.80;;;4.50;;
16510;SDS011;8368;48.772;8.754;2022-07-23T09:17:46;5.28;;;4.97;;
16510;SDS011;8368;48.772;8.754;2022-07-23T09:20:13;5.53;;;5.15;;
16510;SDS011;8368;48.772;8.754;2022-07-23T09:22:45;4.85;;;4.65;;
16510;SDS011;8368;48.772;8.754;2022-07-23T09:25:16;5.60;;;5.20;;
16510;SDS011;8368;48.772;8.754;2022-07-23T09:30:20;5.88;;;5.57;;
16510;SDS011;8368;48.772;8.754;2022-07-23T09:35:52;5.90;;;5.50;;
16510;SDS011;8368;48.772;8.754;2022-07-23T09:38:23;6.53;;;6.03;;
16510;SDS011;8368;48.772;8.754;2022-07-23T09:41:08;6.35;;;5.95;;
16510;SDS011;8368;48.772;8.754;2022-07-23T09:43:35;6.10;;;5.70;;
16510;SDS011;8368;48.772;8.754;2022-07-23T09:46:20;6.40;;;6.03;;
16510;SDS011;8368;48.772;8.754;2022-07-23T09:48:51;6.95;;;5.60;;
16510;SDS011;8368;48.772;8.754;2022-07-23T09:51:19;6.32;;;5.88;;
16510;SDS011;8368;48.772;8.754;2022-07-23T09:54:05;6.47;;;6.05;;
16510;SDS011;8368;48.772;8.754;2022-07-23T09:56:44;6.20;;;5.80;;
16510;SDS011;8368;48.772;8.754;2022-07-23T09:59:12;6.07;;;5.68;;
16510;SDS011;8368;48.772;8.754;2022-07-23T10:01:41;6.45;;;6.05;;
16510;SDS011;8368;48.772;8.754;2022-07-23T10:04:08;6.70;;;6.22;;
16510;SDS011;8368;48.772;8.754;2022-07-23T10:06:35;6.32;;;5.93;;
16510;SDS011;8368;48.772;8.754;2022-07-23T10:09:03;6.05;;;5.65;;
16510;SDS011;8368;48.772;8.754;2022-07-23T10:11:28;6.25;;;5.80;;
16510;SDS011;8368;48.772;8.754;2022-07-23T10:13:56;6.10;;;5.70;;
16510;SDS011;8368;48.772;8.754;2022-07-23T10:16:24;6.28;;;5.88;;
16510;SDS011;8368;48.772;8.754;2022-07-23T10:18:51;5.97;;;5.57;;
16510;SDS011;8368;48.772;8.754;2022-07-23T10:21:19;5.90;;;5.50;;
16510;SDS011;8368;48.772;8.754;2022-07-23T10:24:12;5.97;;;5.57;;
16510;SDS011;8368;48.772;8.754;2022-07-23T10:26:58;5.72;;;5.22;;
16510;SDS011;8368;48.772;8.754;2022-07-23T10:29:45;5.88;;;5.47;;
16510;SDS011;8368;48.772;8.754;2022-07-23T10:37:45;6.00;;;5.60;;
16510;SDS011;8368;48.772;8.754;2022-07-23T10:40:20;5.80;;;5.30;;
16510;SDS011;8368;48.772;8.754;2022-07-23T10:42:48;5.70;;;5.40;;
16510;SDS011;8368;48.772;8.754;2022-07-23T10:45:23;6.50;;;6.00;;
16510;SDS011;8368;48.772;8.754;2022-07-23T10:47:49;6.07;;;5.68;;
16510;SDS011;8368;48.772;8.754;2022-07-23T10:50:22;7.18;;;6.68;;
16510;SDS011;8368;48.772;8.754;2022-07-23T10:58:04;6.10;;;5.80;;
16510;SDS011;8368;48.772;8.754;2022-07-23T11:00:31;8.40;;;6.07;;
16510;SDS011;8368;48.772;8.754;2022-07-23T11:02:58;6.20;;;5.80;;
16510;SDS011;8368;48.772;8.754;2022-07-23T11:05:26;7.03;;;5.70;;
16510;SDS011;8368;48.772;8.754;2022-07-23T11:10:34;6.63;;;6.00;;
16510;SDS011;8368;48.772;8.754;2022-07-23T11:16:03;6.50;;;6.10;;
16510;SDS011;8368;48.772;8.754;2022-07-23T11:32:06;6.18;;;5.78;;
16510;SDS011;8368;48.772;8.754;2022-07-23T11:34:43;6.15;;;5.70;;
16510;SDS011;8368;48.772;8.754;2022-07-23T11:39:59;5.97;;;5.57;;
16510;SDS011;8368;48.772;8.754;2022-07-23T11:42:26;6.13;;;5.72;;
16510;SDS011;8368;48.772;8.754;2022-07-23T11:44:52;5.75;;;5.15;;
16510;SDS011;8368;48.772;8.754;2022-07-23T11:47:24;6.63;;;6.13;;
16510;SDS011;8368;48.772;8.754;2022-07-23T11:49:52;5.55;;;5.25;;
16510;SDS011;8368;48.772;8.754;2022-07-23T11:52:19;6.20;;;5.80;;
16510;SDS011;8368;48.772;8.754;2022-07-23T11:54:50;6.20;;;5.70;;
16510;SDS011;8368;48.772;8.754;2022-07-23T11:57:23;6.30;;;5.80;;
16510;SDS011;8368;48.772;8.754;2022-07-23T11:59:51;6.15;;;5.75;;
16510;SDS011;8368;48.772;8.754;2022-07-23T12:02:19;6.03;;;5.63;;
16510;SDS011;8368;48.772;8.754;2022-07-23T12:04:46;5.30;;;5.00;;
16510;SDS011;8368;48.772;8.754;2022-07-23T12:09:58;6.40;;;5.82;;
16510;SDS011;8368;48.772;8.754;2022-07-23T12:12:25;5.80;;;5.50;;
16510;SDS011;8368;48.772;8.754;2022-07-23T12:14:55;6.00;;;5.60;;
16510;SDS011;8368;48.772;8.754;2022-07-23T12:17:30;5.55;;;5.25;;
16510;SDS011;8368;48.772;8.754;2022-07-23T12:19:58;6.38;;;5.88;;
16510;SDS011;8368;48.772;8.754;2022-07-23T12:22:26;6.03;;;5.65;;
16510;SDS011;8368;48.772;8.754;2022-07-23T12:25:04;7.05;;;5.40;;
16510;SDS011;8368;48.772;8.754;2022-07-23T12:27:41;6.05;;;5.65;;
16510;SDS011;8368;48.772;8.754;2022-07-23T12:30:15;6.50;;;6.00;;
16510;SDS011;8368;48.772;8.754;2022-07-23T12:32:43;6.88;;;6.38;;
16510;SDS011;8368;48.772;8.754;2022-07-23T12:35:09;6.22;;;5.75;;
16510;SDS011;8368;48.772;8.754;2022-07-23T12:37:37;24.98;;;7.45;;
16510;SDS011;8368;48.772;8.754;2022-07-23T12:40:20;7.35;;;6.53;;
16510;SDS011;8368;48.772;8.754;2022-07-23T12:43:06;5.85;;;5.53;;
16510;SDS011;8368;48.772;8.754;2022-07-23T12:45:47;6.80;;;6.30;;
16510;SDS011;8368;48.772;8.754;2022-07-23T12:53:36;6.20;;;5.90;;
16510;SDS011;8368;48.772;8.754;2022-07-23T13:01:22;6.00;;;5.65;;
16510;SDS011;8368;48.772;8.754;2022-07-23T13:04:06;5.70;;;5.30;;
16510;SDS011;8368;48.772;8.754;2022-07-23T13:06:52;5.95;;;5.57;;
16510;SDS011;8368;48.772;8.754;2022-07-23T13:09:37;6.22;;;5.82;;
16510;SDS011;8368;48.772;8.754;2022-07-23T13:12:03;7.53;;;6.40;;
16510;SDS011;8368;48.772;8.754;2022-07-23T13:14:29;5.95;;;5.47;;
16510;SDS011;8368;48.772;8.754;2022-07-23T13:16:55;6.38;;;5.72;;
16510;SDS011;8368;48.772;8.754;2022-07-23T13:19:21;5.82;;;5.43;;
16510;SDS011;8368;48.772;8.754;2022-07-23T13:21:47;5.32;;;5.00;;
16510;SDS011;8368;48.772;8.754;2022-07-23T13:24:13;5.60;;;5.20;;
16510;SDS011;8368;48.772;8.754;2022-07-23T13:26:39;5.97;;;5.38;;
16510;SDS011;8368;48.772;8.754;2022-07-23T13:29:05;5.82;;;5.35;;
16510;SDS011;8368;48.772;8.754;2022-07-23T13:31:31;5.35;;;5.07;;
16510;SDS011;8368;48.772;8.754;2022-07-23T13:33:58;5.72;;;5.22;;
16510;SDS011;8368;48.772;8.754;2022-07-23T13:36:23;5.07;;;4.78;;
16510;SDS011;8368;48.772;8.754;2022-07-23T13:38:49;5.22;;;4.90;;
16510;SDS011;8368;48.772;8.754;2022-07-23T13:41:16;5.47;;;5.07;;
16510;SDS011;8368;48.772;8.754;2022-07-23T13:43:42;5.13;;;4.82;;
16510;SDS011;8368;48.772;8.754;2022-07-23T13:46:08;5.75;;;5.35;;
16510;SDS011;8368;48.772;8.754;2022-07-23T13:48:34;5.53;;;5.13;;
16510;SDS011;8368;48.772;8.754;2022-07-23T13:50:59;5.18;;;4.93;;
16510;SDS011;8368;48.772;8.754;2022-07-23T13:53:25;5.70;;;5.20;;
16510;SDS011;8368;48.772;8.754;2022-07-23T13:55:51;6.15;;;5.75;;
16510;SDS011;8368;48.772;8.754;2022-07-23T13:58:18;6.05;;;5.65;;
16510;SDS011;8368;48.772;8.754;2022-07-23T14:00:45;5.78;;;5.45;;
16510;SDS011;8368;48.772;8.754;2022-07-23T14:03:14;5.80;;;5.47;;
16510;SDS011;8368;48.772;8.754;2022-07-23T14:05:40;5.60;;;5.30;;
16510;SDS011;8368;48.772;8.754;2022-07-23T14:08:07;5.88;;;5.35;;
16510;SDS011;8368;48.772;8.754;2022-07-23T14:10:33;5.90;;;5.50;;
16510;SDS011;8368;48.772;8.754;2022-07-23T14:13:01;6.20;;;5.72;;
16510;SDS011;8368;48.772;8.754;2022-07-23T14:15:27;5.63;;;5.32;;
16510;SDS011;8368;48.772;8.754;2022-07-23T14:17:54;5.75;;;5.40;;
16510;SDS011;8368;48.772;8.754;2022-07-23T14:20:20;5.88;;;5.50;;
16510;SDS011;8368;48.772;8.754;2022-07-23T14:22:46;5.53;;;5.22;;
16510;SDS011;8368;48.772;8.754;2022-07-23T14:25:12;5.65;;;5.25;;
16510;SDS011;8368;48.772;8.754;2022-07-23T14:27:38;6.07;;;5.65;;
16510;SDS011;8368;48.772;8.754;2022-07-23T14:30:05;6.22;;;5.82;;
16510;SDS011;8368;48.772;8.754;2022-07-23T14:32:31;6.22;;;5.78;;
16510;SDS011;8368;48.772;8.754;2022-07-23T14:34:57;6.05;;;5.55;;
16510;SDS011;8368;48.772;8.754;2022-07-23T14:37:23;6.15;;;5.75;;
16510;SDS011;8368;48.772;8.754;2022-07-23T14:39:50;6.38;;;5.97;;
16510;SDS011;8368;48.772;8.754;2022-07-23T14:42:15;6.35;;;5.95;;
16510;SDS011;8368;48.772;8.754;2022-07-23T14:44:41;6.38;;;5.95;;
16510;SDS011;8368;48.772;8.754;2022-07-23T14:47:07;6.30;;;5.88;;
16510;SDS011;8368;48.772;8.754;2022-07-23T14:49:34;6.43;;;6.03;;
16510;SDS011;8368;48.772;8.754;2022-07-23T14:51:59;6.22;;;5.75;;
16510;SDS011;8368;48.772;8.754;2022-07-23T14:54:26;6.47;;;5.97;;
16510;SDS011;8368;48.772;8.754;2022-07-23T14:56:54;7.28;;;6.68;;
16510;SDS011;8368;48.772;8.754;2022-07-23T14:59:20;6.80;;;6.40;;
16510;SDS011;8368;48.772;8.754;2022-07-23T15:01:45;6.60;;;6.20;;
16510;SDS011;8368;48.772;8.754;2022-07-23T15:04:11;7.40;;;6.72;;
16510;SDS011;8368;48.772;8.754;2022-07-23T15:06:37;6.70;;;6.05;;
16510;SDS011;8368;48.772;8.754;2022-07-23T15:09:03;6.68;;;6.28;;
16510;SDS011;8368;48.772;8.754;2022-07-23T15:11:29;6.80;;;6.20;;
16510;SDS011;8368;48.772;8.754;2022-07-23T15:13:58;6.50;;;5.93;;
16510;SDS011;8368;48.772;8.754;2022-07-23T15:16:25;6.07;;;5.65;;
16510;SDS011;8368;48.772;8.754;2022-07-23T15:18:50;6.60;;;6.10;;
16510;SDS011;8368;48.772;8.754;2022-07-23T15:21:16;6.03;;;5.57;;
16510;SDS011;8368;48.772;8.754;2022-07-23T15:23:41;7.05;;;6.53;;
16510;SDS011;8368;48.772;8.754;2022-07-23T15:26:07;7.18;;;6.63;;
16510;SDS011;8368;48.772;8.754;2022-07-23T15:28:33;6.63;;;6.18;;
16510;SDS011;8368;48.772;8.754;2022-07-23T15:31:00;6.45;;;5.93;;
16510;SDS011;8368;48.772;8.754;2022-07-23T15:33:26;6.30;;;5.68;;
16510;SDS011;8368;48.772;8.754;2022-07-23T15:38:20;6.47;;;5.80;;
16510;SDS011;8368;48.772;8.754;2022-07-23T15:40:46;6.47;;;6.10;;
16510;SDS011;8368;48.772;8.754;2022-07-23T15:43:11;6.53;;;6.13;;
16510;SDS011;8368;48.772;8.754;2022-07-23T15:45:38;6.32;;;5.82;;
16510;SDS011;8368;48.772;8.754;2022-07-23T15:48:04;6.95;;;6.45;;
16510;SDS011;8368;48.772;8.754;2022-07-23T15:50:30;6.60;;;5.95;;
16510;SDS011;8368;48.772;8.754;2022-07-23T15:52:56;6.80;;;6.20;;
16510;SDS011;8368;48.772;8.754;2022-07-23T15:55:21;7.03;;;6.35;;
16510;SDS011;8368;48.772;8.754;2022-07-23T15:57:47;6.97;;;6.38;;